Freeman, SD

10:58 AM CDT on September 17, 2014 (GMT -0500)
KSDFREEM4 | Change Station
CLOSE
Current Station
Personal Weather Station
Location: FREEMAN, SD
Elevation: 1440 ft
Nearby Weather Stations

Elev 1440 ft 43.43 °N, 97.48 °W | Updated 3 minutes ago

Clear
Clear
64.8 °F
Feels Like 64.8 °F
N
2.0
Wind Variable Wind from SSE
Gusts 14.0 mph

Today
High -- | Low -- °F
--% Chance of Precip.
Yesterday
High -- | Low -- °F
Precip. -- in
7:11 AM 7:36 PM
Waning Crescent, 35% visible
Pressure 29.93 in
Visibility 10.0 miles
Clouds Clear
Dew Point 58 °F
Humidity 80%
Rainfall 0.00 in
Snow Depth Not available.
UV 4 out of 12
Pollen 4.70 out of 12
Air Quality Not available.
Flu Activity Not available.
METAR KYKN 171535Z AUTO 00000KT 10SM CLR 17/14 A2993 RMK AO1

More Conditions Fewer Conditions

Pressure 29.93 in
Visibility 10.0 miles
Clouds Clear
Dew Point 58 °F
Humidity 80%
Rainfall 0.00 in
Snow Depth Not available.
UV 4 out of 12
Pollen 4.70 out of 12
Air Quality Not available.
Flu Activity Not available.
METAR KYKN 171535Z AUTO 00000KT 10SM CLR 17/14 A2993 RMK AO1

More Conditions Fewer Conditions

10-Day Weather Forecast

Almanac

Astronomy

Sep. 17, 2014 Rise Set
Actual Time 7:11 AM CDT 7:36 PM CDT
Civil Twilight 6:42 AM CDT 8:04 PM CDT
Nautical Twilight 6:09 AM CDT 8:38 PM CDT
Astronomical Twilight 5:34 AM CDT 9:12 PM CDT
Moon 1:05 AM CDT 3:53 PM CDT
Length of Visible Light 13h 21m
Length of Day
12h 24m
Tomorrow will be 2m 56s shorter.
Waning Crescent, 35% of the Moon is Illuminated
Today
Waning Crescent
Sep 24
New
Oct 1
First Quarter
Oct 8
Full
Oct 15
Last Quarter

Today's Extremes

State Highs State Lows

Community

WunderPhotos

Upload Photos

1,754,082 photos uploaded!

Nearby

Snow Depth

Station Depth Elevation
Blind Park 0 in 6890 ft

Earthquake Activity

City Distance Mag. Time & Date
No recent earthquake activity has been reported nearby.
Minimum magnitude displayed is 2.5.

Coastal Water Temperatures

Place Temperature
No Stations Reporting

Nearby Weather Stations